sensor_id;sensor_type;location;lat;lon;timestamp;P1;durP1;ratioP1;P2;durP2;ratioP2
35418;SDS011;21525;41.240;16.500;2023-02-26T00:01:14;16.45;;;7.57;;
35418;SDS011;21525;41.240;16.500;2023-02-26T00:03:42;16.65;;;7.43;;
35418;SDS011;21525;41.240;16.500;2023-02-26T00:06:08;16.83;;;7.22;;
35418;SDS011;21525;41.240;16.500;2023-02-26T00:08:34;18.40;;;8.20;;
35418;SDS011;21525;41.240;16.500;2023-02-26T00:11:00;15.05;;;7.13;;
35418;SDS011;21525;41.240;16.500;2023-02-26T00:13:27;14.20;;;7.43;;
35418;SDS011;21525;41.240;16.500;2023-02-26T00:15:59;18.00;;;7.45;;
35418;SDS011;21525;41.240;16.500;2023-02-26T00:18:26;20.02;;;7.43;;
35418;SDS011;21525;41.240;16.500;2023-02-26T00:20:52;18.65;;;7.20;;
35418;SDS011;21525;41.240;16.500;2023-02-26T00:23:19;21.98;;;7.88;;
35418;SDS011;21525;41.240;16.500;2023-02-26T00:25:45;18.83;;;6.80;;
35418;SDS011;21525;41.240;16.500;2023-02-26T00:28:12;20.67;;;7.50;;
35418;SDS011;21525;41.240;16.500;2023-02-26T00:30:39;27.35;;;7.20;;
35418;SDS011;21525;41.240;16.500;2023-02-26T00:33:05;21.30;;;6.55;;
35418;SDS011;21525;41.240;16.500;2023-02-26T00:35:31;25.80;;;7.00;;
35418;SDS011;21525;41.240;16.500;2023-02-26T00:40:49;27.95;;;7.53;;
35418;SDS011;21525;41.240;16.500;2023-02-26T00:43:18;26.15;;;7.68;;
35418;SDS011;21525;41.240;16.500;2023-02-26T00:51:38;29.25;;;9.07;;
35418;SDS011;21525;41.240;16.500;2023-02-26T00:54:17;22.98;;;7.32;;
35418;SDS011;21525;41.240;16.500;2023-02-26T00:56:46;28.33;;;7.72;;
35418;SDS011;21525;41.240;16.500;2023-02-26T00:59:14;33.25;;;7.05;;
35418;SDS011;21525;41.240;16.500;2023-02-26T01:01:40;25.52;;;6.90;;
35418;SDS011;21525;41.240;16.500;2023-02-26T01:04:07;26.45;;;8.00;;
35418;SDS011;21525;41.240;16.500;2023-02-26T01:06:34;25.70;;;6.82;;
35418;SDS011;21525;41.240;16.500;2023-02-26T01:11:40;29.42;;;6.82;;
35418;SDS011;21525;41.240;16.500;2023-02-26T01:14:07;28.75;;;8.02;;
35418;SDS011;21525;41.240;16.500;2023-02-26T01:16:37;21.75;;;7.22;;
35418;SDS011;21525;41.240;16.500;2023-02-26T01:21:54;22.45;;;6.53;;
35418;SDS011;21525;41.240;16.500;2023-02-26T01:24:27;27.75;;;7.30;;
35418;SDS011;21525;41.240;16.500;2023-02-26T01:26:55;29.63;;;7.78;;
35418;SDS011;21525;41.240;16.500;2023-02-26T01:29:21;22.48;;;7.75;;
35418;SDS011;21525;41.240;16.500;2023-02-26T01:31:56;32.90;;;7.75;;
35418;SDS011;21525;41.240;16.500;2023-02-26T01:37:20;28.23;;;8.20;;
35418;SDS011;21525;41.240;16.500;2023-02-26T01:42:36;27.75;;;7.20;;
35418;SDS011;21525;41.240;16.500;2023-02-26T01:45:12;30.58;;;8.65;;
35418;SDS011;21525;41.240;16.500;2023-02-26T01:47:53;30.77;;;7.72;;
35418;SDS011;21525;41.240;16.500;2023-02-26T01:50:41;29.73;;;7.90;;
35418;SDS011;21525;41.240;16.500;2023-02-26T01:55:35;25.80;;;7.78;;
35418;SDS011;21525;41.240;16.500;2023-02-26T01:58:01;36.75;;;8.00;;
35418;SDS011;21525;41.240;16.500;2023-02-26T02:00:29;30.63;;;9.18;;
35418;SDS011;21525;41.240;16.500;2023-02-26T02:02:55;30.42;;;7.10;;
35418;SDS011;21525;41.240;16.500;2023-02-26T02:05:27;29.65;;;7.80;;
35418;SDS011;21525;41.240;16.500;2023-02-26T02:07:59;30.15;;;7.95;;
35418;SDS011;21525;41.240;16.500;2023-02-26T02:10:26;23.05;;;7.10;;
35418;SDS011;21525;41.240;16.500;2023-02-26T02:12:55;29.70;;;7.28;;
35418;SDS011;21525;41.240;16.500;2023-02-26T02:21:25;37.03;;;9.32;;
35418;SDS011;21525;41.240;16.500;2023-02-26T02:24:10;29.05;;;7.55;;
35418;SDS011;21525;41.240;16.500;2023-02-26T02:32:27;25.25;;;6.95;;
35418;SDS011;21525;41.240;16.500;2023-02-26T02:35:12;29.15;;;7.30;;
35418;SDS011;21525;41.240;16.500;2023-02-26T02:37:46;24.38;;;7.15;;
35418;SDS011;21525;41.240;16.500;2023-02-26T02:40:18;29.23;;;8.45;;
35418;SDS011;21525;41.240;16.500;2023-02-26T02:42:51;30.30;;;7.95;;
35418;SDS011;21525;41.240;16.500;2023-02-26T02:45:28;26.65;;;7.40;;
35418;SDS011;21525;41.240;16.500;2023-02-26T02:48:02;33.53;;;8.23;;
35418;SDS011;21525;41.240;16.500;2023-02-26T02:50:39;26.92;;;7.32;;
35418;SDS011;21525;41.240;16.500;2023-02-26T02:53:18;41.10;;;8.63;;
35418;SDS011;21525;41.240;16.500;2023-02-26T02:55:58;32.30;;;8.32;;
35418;SDS011;21525;41.240;16.500;2023-02-26T02:58:34;30.40;;;7.80;;
35418;SDS011;21525;41.240;16.500;2023-02-26T03:01:09;28.73;;;7.75;;
35418;SDS011;21525;41.240;16.500;2023-02-26T03:06:14;31.65;;;7.53;;
35418;SDS011;21525;41.240;16.500;2023-02-26T03:08:42;26.80;;;8.52;;
35418;SDS011;21525;41.240;16.500;2023-02-26T03:11:10;35.15;;;7.65;;
35418;SDS011;21525;41.240;16.500;2023-02-26T03:13:36;36.17;;;7.60;;
35418;SDS011;21525;41.240;16.500;2023-02-26T03:21:59;25.85;;;7.75;;
35418;SDS011;21525;41.240;16.500;2023-02-26T03:30:01;28.73;;;7.75;;
35418;SDS011;21525;41.240;16.500;2023-02-26T03:35:25;24.15;;;6.70;;
35418;SDS011;21525;41.240;16.500;2023-02-26T03:37:53;28.20;;;8.05;;
35418;SDS011;21525;41.240;16.500;2023-02-26T03:40:29;34.67;;;7.25;;
35418;SDS011;21525;41.240;16.500;2023-02-26T03:43:05;28.15;;;7.80;;
35418;SDS011;21525;41.240;16.500;2023-02-26T03:45:36;32.13;;;7.93;;
35418;SDS011;21525;41.240;16.500;2023-02-26T03:48:06;31.65;;;7.68;;
35418;SDS011;21525;41.240;16.500;2023-02-26T03:53:24;31.13;;;8.13;;
35418;SDS011;21525;41.240;16.500;2023-02-26T03:56:00;31.77;;;7.72;;
35418;SDS011;21525;41.240;16.500;2023-02-26T03:58:49;25.55;;;6.93;;
35418;SDS011;21525;41.240;16.500;2023-02-26T04:01:40;33.45;;;6.93;;
35418;SDS011;21525;41.240;16.500;2023-02-26T04:04:09;27.00;;;7.68;;
35418;SDS011;21525;41.240;16.500;2023-02-26T04:06:39;33.05;;;7.75;;
35418;SDS011;21525;41.240;16.500;2023-02-26T04:09:06;31.85;;;8.07;;
35418;SDS011;21525;41.240;16.500;2023-02-26T04:11:34;29.42;;;8.40;;
35418;SDS011;21525;41.240;16.500;2023-02-26T04:14:03;28.42;;;8.18;;
35418;SDS011;21525;41.240;16.500;2023-02-26T04:16:34;27.40;;;8.10;;
35418;SDS011;21525;41.240;16.500;2023-02-26T04:19:00;32.45;;;8.40;;
35418;SDS011;21525;41.240;16.500;2023-02-26T04:21:28;36.77;;;8.03;;
35418;SDS011;21525;41.240;16.500;2023-02-26T04:23:54;26.67;;;8.00;;
35418;SDS011;21525;41.240;16.500;2023-02-26T04:26:20;30.85;;;7.75;;
35418;SDS011;21525;41.240;16.500;2023-02-26T04:28:47;26.52;;;7.57;;
35418;SDS011;21525;41.240;16.500;2023-02-26T04:31:14;27.25;;;7.15;;
35418;SDS011;21525;41.240;16.500;2023-02-26T04:33:40;26.63;;;7.60;;
35418;SDS011;21525;41.240;16.500;2023-02-26T04:36:07;32.67;;;8.45;;
35418;SDS011;21525;41.240;16.500;2023-02-26T04:38:34;23.45;;;7.07;;
35418;SDS011;21525;41.240;16.500;2023-02-26T04:40:59;28.80;;;7.50;;
35418;SDS011;21525;41.240;16.500;2023-02-26T04:43:25;27.17;;;7.20;;
35418;SDS011;21525;41.240;16.500;2023-02-26T04:46:11;28.08;;;7.07;;
35418;SDS011;21525;41.240;16.500;2023-02-26T04:48:37;21.92;;;7.25;;
35418;SDS011;21525;41.240;16.500;2023-02-26T04:51:03;30.20;;;8.13;;
35418;SDS011;21525;41.240;16.500;2023-02-26T04:53:29;27.10;;;7.35;;
35418;SDS011;21525;41.240;16.500;2023-02-26T04:55:55;32.25;;;7.40;;
35418;SDS011;21525;41.240;16.500;2023-02-26T04:58:21;27.35;;;7.18;;
35418;SDS011;21525;41.240;16.500;2023-02-26T05:00:48;30.10;;;7.60;;
35418;SDS011;21525;41.240;16.500;2023-02-26T05:03:15;30.35;;;7.95;;
35418;SDS011;21525;41.240;16.500;2023-02-26T05:05:42;32.35;;;8.23;;
35418;SDS011;21525;41.240;16.500;2023-02-26T05:08:08;32.05;;;8.13;;
35418;SDS011;21525;41.240;16.500;2023-02-26T05:10:34;29.25;;;9.00;;
35418;SDS011;21525;41.240;16.500;2023-02-26T05:13:00;27.15;;;8.05;;
35418;SDS011;21525;41.240;16.500;2023-02-26T05:15:26;30.30;;;8.27;;
35418;SDS011;21525;41.240;16.500;2023-02-26T05:17:53;33.15;;;8.05;;
35418;SDS011;21525;41.240;16.500;2023-02-26T05:20:19;38.30;;;13.63;;
35418;SDS011;21525;41.240;16.500;2023-02-26T05:22:45;44.22;;;17.48;;
35418;SDS011;21525;41.240;16.500;2023-02-26T05:25:11;40.88;;;21.42;;
35418;SDS011;21525;41.240;16.500;2023-02-26T05:27:38;48.95;;;23.52;;
35418;SDS011;21525;41.240;16.500;2023-02-26T05:30:05;74.90;;;37.10;;
35418;SDS011;21525;41.240;16.500;2023-02-26T05:32:35;58.97;;;34.20;;
35418;SDS011;21525;41.240;16.500;2023-02-26T05:35:01;70.90;;;39.20;;
35418;SDS011;21525;41.240;16.500;2023-02-26T05:37:27;59.15;;;29.55;;
35418;SDS011;21525;41.240;16.500;2023-02-26T05:39:53;53.78;;;27.90;;
35418;SDS011;21525;41.240;16.500;2023-02-26T05:42:19;52.78;;;23.20;;
35418;SDS011;21525;41.240;16.500;2023-02-26T05:44:45;58.20;;;21.27;;
35418;SDS011;21525;41.240;16.500;2023-02-26T05:47:11;42.10;;;17.95;;
35418;SDS011;21525;41.240;16.500;2023-02-26T05:49:36;40.97;;;11.82;;
35418;SDS011;21525;41.240;16.500;2023-02-26T05:52:02;36.33;;;12.52;;
35418;SDS011;21525;41.240;16.500;2023-02-26T05:54:28;37.70;;;15.13;;
35418;SDS011;21525;41.240;16.500;2023-02-26T05:56:54;44.08;;;17.80;;
35418;SDS011;21525;41.240;16.500;2023-02-26T05:59:20;43.63;;;20.10;;
35418;SDS011;21525;41.240;16.500;2023-02-26T06:01:46;52.92;;;20.35;;
35418;SDS011;21525;41.240;16.500;2023-02-26T06:04:12;42.78;;;20.42;;
35418;SDS011;21525;41.240;16.500;2023-02-26T06:06:37;41.88;;;19.30;;
35418;SDS011;21525;41.240;16.500;2023-02-26T06:09:03;54.90;;;27.17;;
35418;SDS011;21525;41.240;16.500;2023-02-26T06:11:30;55.35;;;28.27;;
35418;SDS011;21525;41.240;16.500;2023-02-26T06:13:56;51.45;;;24.60;;
35418;SDS011;21525;41.240;16.500;2023-02-26T06:16:23;58.22;;;27.58;;
35418;SDS011;21525;41.240;16.500;2023-02-26T06:18:49;67.68;;;27.92;;
35418;SDS011;21525;41.240;16.500;2023-02-26T06:21:15;48.55;;;23.02;;
35418;SDS011;21525;41.240;16.500;2023-02-26T06:23:42;53.65;;;23.67;;
35418;SDS011;21525;41.240;16.500;2023-02-26T06:26:08;53.22;;;22.95;;
35418;SDS011;21525;41.240;16.500;2023-02-26T06:28:34;51.28;;;20.98;;
35418;SDS011;21525;41.240;16.500;2023-02-26T06:30:59;58.78;;;22.70;;
35418;SDS011;21525;41.240;16.500;2023-02-26T06:33:25;54.83;;;20.40;;
35418;SDS011;21525;41.240;16.500;2023-02-26T06:35:51;53.67;;;19.10;;
35418;SDS011;21525;41.240;16.500;2023-02-26T06:38:17;46.50;;;19.08;;
35418;SDS011;21525;41.240;16.500;2023-02-26T06:40:44;55.50;;;17.13;;
35418;SDS011;21525;41.240;16.500;2023-02-26T06:43:11;49.70;;;18.63;;
35418;SDS011;21525;41.240;16.500;2023-02-26T06:45:37;46.78;;;15.18;;
35418;SDS011;21525;41.240;16.500;2023-02-26T06:48:03;46.75;;;14.05;;
35418;SDS011;21525;41.240;16.500;2023-02-26T06:50:28;41.88;;;13.48;;
35418;SDS011;21525;41.240;16.500;2023-02-26T06:52:54;40.28;;;11.48;;
35418;SDS011;21525;41.240;16.500;2023-02-26T06:55:20;39.85;;;12.43;;
35418;SDS011;21525;41.240;16.500;2023-02-26T06:57:46;48.13;;;11.85;;
35418;SDS011;21525;41.240;16.500;2023-02-26T07:00:12;42.53;;;11.68;;
35418;SDS011;21525;41.240;16.500;2023-02-26T07:02:38;40.53;;;11.02;;
35418;SDS011;21525;41.240;16.500;2023-02-26T07:05:04;38.65;;;12.20;;
35418;SDS011;21525;41.240;16.500;2023-02-26T07:07:31;44.50;;;12.02;;
35418;SDS011;21525;41.240;16.500;2023-02-26T07:09:56;41.30;;;11.00;;
35418;SDS011;21525;41.240;16.500;2023-02-26T07:12:22;43.95;;;12.25;;
35418;SDS011;21525;41.240;16.500;2023-02-26T07:14:48;49.53;;;12.70;;
35418;SDS011;21525;41.240;16.500;2023-02-26T07:17:14;42.25;;;11.35;;
35418;SDS011;21525;41.240;16.500;2023-02-26T07:19:45;43.13;;;11.32;;
35418;SDS011;21525;41.240;16.500;2023-02-26T07:22:12;47.50;;;11.27;;
35418;SDS011;21525;41.240;16.500;2023-02-26T07:24:38;45.03;;;13.13;;
35418;SDS011;21525;41.240;16.500;2023-02-26T07:27:04;47.65;;;16.48;;
35418;SDS011;21525;41.240;16.500;2023-02-26T07:29:29;51.90;;;20.40;;
35418;SDS011;21525;41.240;16.500;2023-02-26T07:31:55;63.17;;;27.10;;
35418;SDS011;21525;41.240;16.500;2023-02-26T07:34:21;63.17;;;26.00;;
35418;SDS011;21525;41.240;16.500;2023-02-26T07:36:46;67.68;;;30.23;;
35418;SDS011;21525;41.240;16.500;2023-02-26T07:39:12;68.60;;;28.33;;
35418;SDS011;21525;41.240;16.500;2023-02-26T07:41:38;54.63;;;22.02;;
35418;SDS011;21525;41.240;16.500;2023-02-26T07:44:12;52.10;;;19.20;;
35418;SDS011;21525;41.240;16.500;2023-02-26T07:46:38;51.15;;;17.58;;
35418;SDS011;21525;41.240;16.500;2023-02-26T07:49:04;61.53;;;16.90;;
35418;SDS011;21525;41.240;16.500;2023-02-26T07:51:30;62.72;;;16.80;;
35418;SDS011;21525;41.240;16.500;2023-02-26T07:53:55;52.38;;;16.92;;
35418;SDS011;21525;41.240;16.500;2023-02-26T07:56:21;60.55;;;20.20;;
35418;SDS011;21525;41.240;16.500;2023-02-26T07:58:47;70.40;;;22.33;;
35418;SDS011;21525;41.240;16.500;2023-02-26T08:01:13;62.28;;;21.48;;
35418;SDS011;21525;41.240;16.500;2023-02-26T08:03:39;54.92;;;20.95;;
35418;SDS011;21525;41.240;16.500;2023-02-26T08:06:04;56.22;;;19.70;;
35418;SDS011;21525;41.240;16.500;2023-02-26T08:08:31;68.38;;;20.20;;
35418;SDS011;21525;41.240;16.500;2023-02-26T08:10:58;58.95;;;19.60;;
35418;SDS011;21525;41.240;16.500;2023-02-26T08:13:24;49.58;;;16.75;;
35418;SDS011;21525;41.240;16.500;2023-02-26T08:15:50;48.63;;;17.27;;
35418;SDS011;21525;41.240;16.500;2023-02-26T08:18:15;52.53;;;16.95;;
35418;SDS011;21525;41.240;16.500;2023-02-26T08:20:41;58.72;;;16.90;;
35418;SDS011;21525;41.240;16.500;2023-02-26T08:23:07;70.90;;;16.98;;
35418;SDS011;21525;41.240;16.500;2023-02-26T08:25:33;54.00;;;17.35;;
35418;SDS011;21525;41.240;16.500;2023-02-26T08:27:59;50.42;;;17.42;;
35418;SDS011;21525;41.240;16.500;2023-02-26T08:30:26;54.80;;;19.10;;
35418;SDS011;21525;41.240;16.500;2023-02-26T08:32:52;54.10;;;17.63;;
35418;SDS011;21525;41.240;16.500;2023-02-26T08:35:18;60.22;;;18.35;;
35418;SDS011;21525;41.240;16.500;2023-02-26T08:37:44;45.55;;;19.17;;
35418;SDS011;21525;41.240;16.500;2023-02-26T08:40:10;52.65;;;18.60;;
35418;SDS011;21525;41.240;16.500;2023-02-26T08:42:36;52.00;;;17.05;;
35418;SDS011;21525;41.240;16.500;2023-02-26T08:45:02;52.25;;;17.15;;
35418;SDS011;21525;41.240;16.500;2023-02-26T08:47:28;59.95;;;17.15;;
35418;SDS011;21525;41.240;16.500;2023-02-26T08:49:54;71.13;;;19.00;;
35418;SDS011;21525;41.240;16.500;2023-02-26T08:52:20;51.08;;;15.65;;
35418;SDS011;21525;41.240;16.500;2023-02-26T08:54:46;58.65;;;17.60;;
35418;SDS011;21525;41.240;16.500;2023-02-26T08:57:12;49.38;;;15.65;;
35418;SDS011;21525;41.240;16.500;2023-02-26T08:59:38;57.95;;;17.60;;
35418;SDS011;21525;41.240;16.500;2023-02-26T09:02:04;54.20;;;15.02;;
35418;SDS011;21525;41.240;16.500;2023-02-26T09:04:29;53.83;;;16.73;;
35418;SDS011;21525;41.240;16.500;2023-02-26T09:06:55;52.60;;;17.27;;
35418;SDS011;21525;41.240;16.500;2023-02-26T09:09:21;63.83;;;17.02;;
35418;SDS011;21525;41.240;16.500;2023-02-26T09:11:47;59.22;;;17.52;;
35418;SDS011;21525;41.240;16.500;2023-02-26T09:14:13;63.53;;;18.98;;
35418;SDS011;21525;41.240;16.500;2023-02-26T09:16:40;67.80;;;20.83;;
35418;SDS011;21525;41.240;16.500;2023-02-26T09:19:06;65.45;;;22.45;;
35418;SDS011;21525;41.240;16.500;2023-02-26T09:21:32;66.85;;;18.88;;
35418;SDS011;21525;41.240;16.500;2023-02-26T09:24:00;70.05;;;21.42;;
35418;SDS011;21525;41.240;16.500;2023-02-26T09:26:26;64.63;;;18.58;;
35418;SDS011;21525;41.240;16.500;2023-02-26T09:28:51;77.53;;;21.33;;
35418;SDS011;21525;41.240;16.500;2023-02-26T09:31:17;78.70;;;20.90;;
35418;SDS011;21525;41.240;16.500;2023-02-26T09:33:43;66.32;;;21.77;;
35418;SDS011;21525;41.240;16.500;2023-02-26T09:36:09;72.30;;;22.17;;
35418;SDS011;21525;41.240;16.500;2023-02-26T09:38:35;87.38;;;25.13;;
35418;SDS011;21525;41.240;16.500;2023-02-26T09:41:05;85.03;;;25.67;;
35418;SDS011;21525;41.240;16.500;2023-02-26T09:46:10;81.10;;;23.67;;
35418;SDS011;21525;41.240;16.500;2023-02-26T09:48:56;81.30;;;25.75;;
35418;SDS011;21525;41.240;16.500;2023-02-26T09:51:37;68.22;;;21.52;;
35418;SDS011;21525;41.240;16.500;2023-02-26T09:54:06;72.75;;;20.92;;
35418;SDS011;21525;41.240;16.500;2023-02-26T09:56:39;79.95;;;22.20;;
35418;SDS011;21525;41.240;16.500;2023-02-26T09:59:07;74.97;;;21.83;;
35418;SDS011;21525;41.240;16.500;2023-02-26T10:01:37;69.15;;;20.67;;
35418;SDS011;21525;41.240;16.500;2023-02-26T10:06:59;68.07;;;18.98;;
35418;SDS011;21525;41.240;16.500;2023-02-26T10:09:34;61.08;;;17.75;;
35418;SDS011;21525;41.240;16.500;2023-02-26T10:23:22;66.35;;;15.32;;
35418;SDS011;21525;41.240;16.500;2023-02-26T10:26:04;53.42;;;14.93;;
35418;SDS011;21525;41.240;16.500;2023-02-26T10:36:51;57.45;;;14.52;;
35418;SDS011;21525;41.240;16.500;2023-02-26T10:42:21;64.82;;;14.57;;
35418;SDS011;21525;41.240;16.500;2023-02-26T10:50:21;62.35;;;12.80;;
35418;SDS011;21525;41.240;16.500;2023-02-26T10:52:48;49.35;;;13.48;;
35418;SDS011;21525;41.240;16.500;2023-02-26T11:00:30;50.42;;;12.60;;
35418;SDS011;21525;41.240;16.500;2023-02-26T11:02:59;55.28;;;14.18;;
35418;SDS011;21525;41.240;16.500;2023-02-26T11:05:28;58.67;;;11.18;;
35418;SDS011;21525;41.240;16.500;2023-02-26T11:07:56;57.00;;;10.93;;
35418;SDS011;21525;41.240;16.500;2023-02-26T11:10:40;56.03;;;10.20;;
35418;SDS011;21525;41.240;16.500;2023-02-26T11:13:14;59.88;;;11.40;;
35418;SDS011;21525;41.240;16.500;2023-02-26T11:15:41;41.60;;;10.95;;
35418;SDS011;21525;41.240;16.500;2023-02-26T11:18:11;64.57;;;12.60;;
35418;SDS011;21525;41.240;16.500;2023-02-26T11:20:41;59.97;;;12.35;;
35418;SDS011;21525;41.240;16.500;2023-02-26T11:23:11;54.58;;;11.82;;
35418;SDS011;21525;41.240;16.500;2023-02-26T11:25:39;52.28;;;10.88;;
35418;SDS011;21525;41.240;16.500;2023-02-26T11:28:06;59.15;;;14.80;;
35418;SDS011;21525;41.240;16.500;2023-02-26T11:30:44;59.17;;;13.00;;
35418;SDS011;21525;41.240;16.500;2023-02-26T11:33:15;54.28;;;13.38;;
35418;SDS011;21525;41.240;16.500;2023-02-26T11:36:00;52.67;;;12.25;;
35418;SDS011;21525;41.240;16.500;2023-02-26T11:38:30;51.00;;;11.30;;
35418;SDS011;21525;41.240;16.500;2023-02-26T11:40:58;47.97;;;10.77;;
35418;SDS011;21525;41.240;16.500;2023-02-26T11:43:32;52.95;;;11.02;;
35418;SDS011;21525;41.240;16.500;2023-02-26T11:46:09;52.55;;;11.63;;
35418;SDS011;21525;41.240;16.500;2023-02-26T11:51:12;46.40;;;10.57;;
35418;SDS011;21525;41.240;16.500;2023-02-26T11:53:42;56.00;;;11.02;;
35418;SDS011;21525;41.240;16.500;2023-02-26T11:56:25;47.75;;;10.27;;
35418;SDS011;21525;41.240;16.500;2023-02-26T11:59:05;59.60;;;11.65;;
35418;SDS011;21525;41.240;16.500;2023-02-26T12:01:41;50.47;;;10.85;;
35418;SDS011;21525;41.240;16.500;2023-02-26T12:04:08;55.17;;;11.23;;
35418;SDS011;21525;41.240;16.500;2023-02-26T12:06:36;55.75;;;10.75;;
35418;SDS011;21525;41.240;16.500;2023-02-26T12:09:02;54.90;;;11.93;;
35418;SDS011;21525;41.240;16.500;2023-02-26T12:11:41;59.83;;;11.25;;
35418;SDS011;21525;41.240;16.500;2023-02-26T12:38:39;55.25;;;11.60;;
35418;SDS011;21525;41.240;16.500;2023-02-26T12:45:22;61.35;;;13.05;;
35418;SDS011;21525;41.240;16.500;2023-02-26T13:09:51;45.90;;;10.63;;
35418;SDS011;21525;41.240;16.500;2023-02-26T13:12:35;28.10;;;6.65;;
35418;SDS011;21525;41.240;16.500;2023-02-26T13:17:55;13.20;;;3.65;;
35418;SDS011;21525;41.240;16.500;2023-02-26T13:21:26;15.90;;;3.10;;
35418;SDS011;21525;41.240;16.500;2023-02-26T13:26:18;13.77;;;4.25;;
35418;SDS011;21525;41.240;16.500;2023-02-26T13:28:48;15.80;;;3.83;;
35418;SDS011;21525;41.240;16.500;2023-02-26T13:31:44;19.80;;;4.65;;
35418;SDS011;21525;41.240;16.500;2023-02-26T13:34:34;18.38;;;4.57;;
35418;SDS011;21525;41.240;16.500;2023-02-26T13:37:01;15.95;;;5.35;;
35418;SDS011;21525;41.240;16.500;2023-02-26T13:39:35;19.90;;;5.23;;
35418;SDS011;21525;41.240;16.500;2023-02-26T13:42:21;22.63;;;7.00;;
35418;SDS011;21525;41.240;16.500;2023-02-26T13:55:54;19.38;;;5.57;;
35418;SDS011;21525;41.240;16.500;2023-02-26T13:58:35;23.13;;;6.15;;
35418;SDS011;21525;41.240;16.500;2023-02-26T14:03:40;22.98;;;5.60;;
35418;SDS011;21525;41.240;16.500;2023-02-26T14:06:24;15.00;;;4.30;;
35418;SDS011;21525;41.240;16.500;2023-02-26T14:09:02;18.25;;;5.40;;
35418;SDS011;21525;41.240;16.500;2023-02-26T14:17:28;11.55;;;4.35;;
35418;SDS011;21525;41.240;16.500;2023-02-26T14:20:15;13.57;;;4.10;;
35418;SDS011;21525;41.240;16.500;2023-02-26T14:23:09;16.73;;;4.57;;
35418;SDS011;21525;41.240;16.500;2023-02-26T14:25:38;22.33;;;6.20;;
35418;SDS011;21525;41.240;16.500;2023-02-26T14:30:51;9.45;;;3.50;;
35418;SDS011;21525;41.240;16.500;2023-02-26T14:33:45;13.30;;;4.00;;
35418;SDS011;21525;41.240;16.500;2023-02-26T14:36:44;15.18;;;4.28;;
35418;SDS011;21525;41.240;16.500;2023-02-26T14:39:23;16.98;;;4.38;;
35418;SDS011;21525;41.240;16.500;2023-02-26T14:41:54;14.02;;;3.92;;
35418;SDS011;21525;41.240;16.500;2023-02-26T14:44:25;13.13;;;5.10;;
35418;SDS011;21525;41.240;16.500;2023-02-26T14:46:55;16.95;;;5.82;;
35418;SDS011;21525;41.240;16.500;2023-02-26T14:49:32;18.33;;;7.40;;
35418;SDS011;21525;41.240;16.500;2023-02-26T15:18:20;15.63;;;5.25;;
35418;SDS011;21525;41.240;16.500;2023-02-26T15:21:14;14.82;;;5.75;;
35418;SDS011;21525;41.240;16.500;2023-02-26T15:23:49;15.38;;;4.90;;
35418;SDS011;21525;41.240;16.500;2023-02-26T15:26:31;13.35;;;4.65;;
35418;SDS011;21525;41.240;16.500;2023-02-26T15:29:03;15.40;;;4.88;;
35418;SDS011;21525;41.240;16.500;2023-02-26T15:31:42;18.63;;;5.43;;
35418;SDS011;21525;41.240;16.500;2023-02-26T15:34:13;21.20;;;7.95;;
35418;SDS011;21525;41.240;16.500;2023-02-26T15:36:48;16.00;;;5.90;;
35418;SDS011;21525;41.240;16.500;2023-02-26T15:39:16;16.92;;;5.82;;
35418;SDS011;21525;41.240;16.500;2023-02-26T15:41:45;16.07;;;5.50;;
35418;SDS011;21525;41.240;16.500;2023-02-26T15:44:17;11.82;;;4.65;;
35418;SDS011;21525;41.240;16.500;2023-02-26T15:46:47;9.90;;;4.50;;
35418;SDS011;21525;41.240;16.500;2023-02-26T15:49:25;17.38;;;6.53;;
35418;SDS011;21525;41.240;16.500;2023-02-26T15:51:54;14.77;;;5.47;;
35418;SDS011;21525;41.240;16.500;2023-02-26T15:54:22;13.48;;;4.60;;
35418;SDS011;21525;41.240;16.500;2023-02-26T15:56:52;15.15;;;4.55;;
35418;SDS011;21525;41.240;16.500;2023-02-26T15:59:21;13.45;;;4.00;;
35418;SDS011;21525;41.240;16.500;2023-02-26T16:01:51;10.93;;;3.65;;
35418;SDS011;21525;41.240;16.500;2023-02-26T16:04:20;14.20;;;4.05;;
35418;SDS011;21525;41.240;16.500;2023-02-26T16:06:54;10.10;;;3.38;;
35418;SDS011;21525;41.240;16.500;2023-02-26T16:11:59;10.00;;;3.08;;
35418;SDS011;21525;41.240;16.500;2023-02-26T16:14:43;7.65;;;3.17;;
35418;SDS011;21525;41.240;16.500;2023-02-26T16:17:14;11.55;;;3.90;;
35418;SDS011;21525;41.240;16.500;2023-02-26T16:19:52;9.38;;;3.72;;
35418;SDS011;21525;41.240;16.500;2023-02-26T16:27:18;9.30;;;2.78;;
35418;SDS011;21525;41.240;16.500;2023-02-26T16:29:51;10.80;;;3.10;;
35418;SDS011;21525;41.240;16.500;2023-02-26T16:32:21;8.70;;;3.38;;
35418;SDS011;21525;41.240;16.500;2023-02-26T16:34:52;9.10;;;4.60;;
35418;SDS011;21525;41.240;16.500;2023-02-26T16:37:25;8.63;;;1.95;;
35418;SDS011;21525;41.240;16.500;2023-02-26T16:40:04;9.88;;;2.58;;
35418;SDS011;21525;41.240;16.500;2023-02-26T16:46:15;7.93;;;2.22;;
35418;SDS011;21525;41.240;16.500;2023-02-26T16:49:03;10.45;;;2.22;;
35418;SDS011;21525;41.240;16.500;2023-02-26T16:51:35;8.32;;;3.83;;
35418;SDS011;21525;41.240;16.500;2023-02-26T16:54:05;13.40;;;5.63;;
35418;SDS011;21525;41.240;16.500;2023-02-26T16:56:38;9.43;;;3.50;;
35418;SDS011;21525;41.240;16.500;2023-02-26T17:01:50;10.73;;;3.28;;
35418;SDS011;21525;41.240;16.500;2023-02-26T17:04:21;13.80;;;3.67;;
35418;SDS011;21525;41.240;16.500;2023-02-26T17:06:50;11.65;;;2.60;;
35418;SDS011;21525;41.240;16.500;2023-02-26T17:09:24;11.90;;;3.03;;
35418;SDS011;21525;41.240;16.500;2023-02-26T17:12:15;6.07;;;2.60;;
35418;SDS011;21525;41.240;16.500;2023-02-26T17:14:46;9.48;;;4.05;;
35418;SDS011;21525;41.240;16.500;2023-02-26T17:17:19;10.20;;;4.68;;
35418;SDS011;21525;41.240;16.500;2023-02-26T17:19:45;14.57;;;5.85;;
35418;SDS011;21525;41.240;16.500;2023-02-26T17:22:12;13.82;;;6.55;;
35418;SDS011;21525;41.240;16.500;2023-02-26T17:24:40;13.85;;;6.75;;
35418;SDS011;21525;41.240;16.500;2023-02-26T17:27:13;14.82;;;7.65;;
35418;SDS011;21525;41.240;16.500;2023-02-26T17:29:42;13.52;;;6.20;;
35418;SDS011;21525;41.240;16.500;2023-02-26T17:32:11;10.57;;;4.63;;
35418;SDS011;21525;41.240;16.500;2023-02-26T17:34:42;12.88;;;3.92;;
35418;SDS011;21525;41.240;16.500;2023-02-26T17:37:11;14.55;;;4.18;;
35418;SDS011;21525;41.240;16.500;2023-02-26T17:39:38;12.05;;;3.50;;
35418;SDS011;21525;41.240;16.500;2023-02-26T17:42:08;10.77;;;3.95;;
35418;SDS011;21525;41.240;16.500;2023-02-26T17:44:41;16.25;;;3.85;;
35418;SDS011;21525;41.240;16.500;2023-02-26T17:47:09;16.20;;;3.53;;
35418;SDS011;21525;41.240;16.500;2023-02-26T17:49:42;10.40;;;2.97;;
35418;SDS011;21525;41.240;16.500;2023-02-26T17:52:08;13.55;;;3.15;;
35418;SDS011;21525;41.240;16.500;2023-02-26T17:54:34;15.30;;;3.85;;
35418;SDS011;21525;41.240;16.500;2023-02-26T17:57:00;11.07;;;3.33;;
35418;SDS011;21525;41.240;16.500;2023-02-26T17:59:27;22.33;;;4.18;;
35418;SDS011;21525;41.240;16.500;2023-02-26T18:01:53;11.00;;;3.00;;
35418;SDS011;21525;41.240;16.500;2023-02-26T18:04:19;13.80;;;3.65;;
35418;SDS011;21525;41.240;16.500;2023-02-26T18:06:45;8.43;;;2.65;;